Portada
METAR-TAF:

METAR-TAF

Aeroports :

Natashquan, Quebec, Canadà

latitud: 50-11N, longitud: 061-49W, altitud: 7 m

Observació

L'informe es va fer fa 1 hora i 4 minuts, a les 03:00 UTC
Vent 6 kt del Sud/Sud-Est
Temperatura -2°C
Humitat 80%
Pressió 1017 hPa
Visibilitat: 14.5 km
Cel clar

METAR: CYNA 200300Z AUTO 16006KT 9SM CLR M02/M05 A3004 RMK SLP176

Hora: 00:04 (04:04 UTC)

Pronòstic

L'informe es va fer fa 8 hores i 20 minuts, a les 19:44 UTC
Pronòstic vàlid del 19 a les 20 UTC al 20 a les 08 UTC
Vent 6 kt del Sud/Sud-Oest
Visibilitat: 10 km
Cel clar
Evolucionant progressivament
l' 19 a les 20 UTC al 19 a les 22 UTC
Vent 10 kt del Sud-Est
A partir de les 20 a les 0600 UTC
Vent 12 kt del Sud
Visibilitat: 10 km
Núvols disperses a una alçada de 18000 ft
Cel ennuvolat a una alçada de 24000 ft

TAF: CYNA 191944Z 1920/2008 21006KT P6SM SKC BECMG 1920/1922 14010KT FM200600 17012KT P6SM SCT180 BKN240 RMK FCST BASED ON AUTO OBS. NXT FCST BY 200200Z

Observacions i pronòstics meteorològics de més de 4000 aeroports (METAR i TAF).

Les estacions disponibles són els punts grocs i vermells al mapa.

Posi el ratolí al punt desitjat per veure el nom de l'estació.

Feu clic per veure les observacions i els pronòstics meteorològics.

Per canviar el mapa: feu clic els botons verds amb una creu de color negre per apropar; al botó verd amb un guió per allunyar la imatge; o en les fletxes verdes per a mapes adjacents.


METAR-TAF: